createdAt,value
2023-03-14T00:15:39.785Z,8.25
2023-03-14T00:45:39.750Z,7.94
2023-03-14T01:15:39.736Z,7.81
2023-03-14T01:45:39.785Z,7.81
2023-03-14T02:15:39.744Z,7.88
2023-03-14T02:45:39.812Z,7.81
2023-03-14T03:15:39.748Z,7.75
2023-03-14T03:45:39.764Z,7.69
2023-03-14T04:15:39.812Z,7.63
2023-03-14T04:45:39.776Z,7.56
2023-03-14T05:15:39.763Z,7.44
2023-03-14T05:45:39.805Z,7.38
2023-03-14T06:15:39.779Z,7.38
2023-03-14T06:45:39.874Z,7.56
2023-03-14T07:15:39.812Z,7.88
2023-03-14T07:45:43.063Z,8.25
2023-03-14T08:15:39.813Z,8.88
2023-03-14T08:45:39.817Z,9.19
2023-03-14T09:15:39.852Z,10.19
2023-03-14T09:45:39.841Z,10.25
2023-03-14T10:15:39.825Z,10.38
2023-03-14T10:45:39.839Z,10.81
2023-03-14T11:15:39.860Z,11.56
2023-03-14T11:45:39.857Z,11.94
2023-03-14T12:15:39.856Z,12.25
2023-03-14T12:45:39.892Z,12.81
2023-03-14T13:15:39.850Z,9.63
2023-03-14T13:45:39.850Z,9
2023-03-14T14:15:39.915Z,8.81
2023-03-14T14:45:39.866Z,7.81
2023-03-14T15:15:39.868Z,6.44
2023-03-14T15:45:39.928Z,5.69
2023-03-14T16:15:39.890Z,5.19
2023-03-14T16:45:39.972Z,4.94
2023-03-14T17:15:39.984Z,4.75
2023-03-14T17:45:39.901Z,3.5
2023-03-14T18:15:39.989Z,3.38
2023-03-14T18:45:39.916Z,3.56
2023-03-14T19:15:39.915Z,3.63
2023-03-14T19:45:39.951Z,3.63
2023-03-14T20:15:39.918Z,3.88
2023-03-14T20:45:39.938Z,4.13
2023-03-14T21:15:40.088Z,4.19
2023-03-14T21:45:39.923Z,2
2023-03-14T22:15:39.944Z,1.56
2023-03-14T22:45:39.976Z,1.56
2023-03-14T23:15:39.939Z,1.88
2023-03-14T23:45:39.954Z,1.69
